sensor_id;sensor_type;location;lat;lon;timestamp;P1;durP1;ratioP1;P2;durP2;ratioP2
39128;SDS011;24864;49.940;19.770;2023-07-02T00:00:18;44.38;;;33.22;;
39128;SDS011;24864;49.940;19.770;2023-07-02T00:03:08;37.50;;;29.63;;
39128;SDS011;24864;49.940;19.770;2023-07-02T00:05:38;30.95;;;27.65;;
39128;SDS011;24864;49.940;19.770;2023-07-02T00:08:06;35.22;;;26.73;;
39128;SDS011;24864;49.940;19.770;2023-07-02T00:10:34;40.92;;;28.67;;
39128;SDS011;24864;49.940;19.770;2023-07-02T00:13:02;34.95;;;27.90;;
39128;SDS011;24864;49.940;19.770;2023-07-02T00:15:30;36.83;;;29.55;;
39128;SDS011;24864;49.940;19.770;2023-07-02T00:17:58;36.25;;;30.52;;
39128;SDS011;24864;49.940;19.770;2023-07-02T00:20:27;39.40;;;29.00;;
39128;SDS011;24864;49.940;19.770;2023-07-02T00:22:58;34.55;;;29.48;;
39128;SDS011;24864;49.940;19.770;2023-07-02T00:25:26;34.97;;;29.65;;
39128;SDS011;24864;49.940;19.770;2023-07-02T00:27:55;42.22;;;31.58;;
39128;SDS011;24864;49.940;19.770;2023-07-02T00:30:23;34.55;;;29.63;;
39128;SDS011;24864;49.940;19.770;2023-07-02T00:32:51;37.10;;;31.15;;
39128;SDS011;24864;49.940;19.770;2023-07-02T00:35:19;37.65;;;30.05;;
39128;SDS011;24864;49.940;19.770;2023-07-02T00:37:48;37.13;;;29.27;;
39128;SDS011;24864;49.940;19.770;2023-07-02T00:40:17;35.95;;;27.83;;
39128;SDS011;24864;49.940;19.770;2023-07-02T00:42:46;31.27;;;27.38;;
39128;SDS011;24864;49.940;19.770;2023-07-02T00:45:14;36.92;;;27.92;;
39128;SDS011;24864;49.940;19.770;2023-07-02T00:47:42;28.80;;;25.60;;
39128;SDS011;24864;49.940;19.770;2023-07-02T00:50:10;32.70;;;25.95;;
39128;SDS011;24864;49.940;19.770;2023-07-02T00:52:39;27.80;;;24.80;;
39128;SDS011;24864;49.940;19.770;2023-07-02T00:55:07;31.52;;;26.90;;
39128;SDS011;24864;49.940;19.770;2023-07-02T00:57:37;31.45;;;27.85;;
39128;SDS011;24864;49.940;19.770;2023-07-02T01:00:07;37.50;;;28.63;;
39128;SDS011;24864;49.940;19.770;2023-07-02T01:02:36;34.25;;;28.35;;
39128;SDS011;24864;49.940;19.770;2023-07-02T01:05:05;37.58;;;29.67;;
39128;SDS011;24864;49.940;19.770;2023-07-02T01:07:34;39.50;;;30.13;;
39128;SDS011;24864;49.940;19.770;2023-07-02T01:10:02;40.53;;;29.48;;
39128;SDS011;24864;49.940;19.770;2023-07-02T01:12:31;34.95;;;29.08;;
39128;SDS011;24864;49.940;19.770;2023-07-02T01:15:01;34.35;;;29.85;;
39128;SDS011;24864;49.940;19.770;2023-07-02T01:20:08;36.97;;;28.08;;
39128;SDS011;24864;49.940;19.770;2023-07-02T01:22:37;39.10;;;28.67;;
39128;SDS011;24864;49.940;19.770;2023-07-02T01:25:06;33.63;;;28.70;;
39128;SDS011;24864;49.940;19.770;2023-07-02T01:27:35;35.78;;;26.65;;
39128;SDS011;24864;49.940;19.770;2023-07-02T01:30:04;31.00;;;27.52;;
39128;SDS011;24864;49.940;19.770;2023-07-02T01:32:33;31.60;;;26.25;;
39128;SDS011;24864;49.940;19.770;2023-07-02T01:35:02;31.92;;;25.00;;
39128;SDS011;24864;49.940;19.770;2023-07-02T01:37:31;31.77;;;25.02;;
39128;SDS011;24864;49.940;19.770;2023-07-02T01:40:04;30.42;;;25.73;;
39128;SDS011;24864;49.940;19.770;2023-07-02T01:42:34;29.42;;;25.17;;
39128;SDS011;24864;49.940;19.770;2023-07-02T01:45:02;30.45;;;26.52;;
39128;SDS011;24864;49.940;19.770;2023-07-02T01:47:31;33.38;;;25.33;;
39128;SDS011;24864;49.940;19.770;2023-07-02T01:49:59;30.77;;;25.42;;
39128;SDS011;24864;49.940;19.770;2023-07-02T01:52:29;28.15;;;24.95;;
39128;SDS011;24864;49.940;19.770;2023-07-02T01:55:01;30.77;;;26.55;;
39128;SDS011;24864;49.940;19.770;2023-07-02T01:57:30;27.88;;;24.95;;
39128;SDS011;24864;49.940;19.770;2023-07-02T01:59:58;29.27;;;25.45;;
39128;SDS011;24864;49.940;19.770;2023-07-02T02:02:26;29.02;;;25.92;;
39128;SDS011;24864;49.940;19.770;2023-07-02T02:04:54;29.23;;;23.63;;
39128;SDS011;24864;49.940;19.770;2023-07-02T02:07:24;26.60;;;23.85;;
39128;SDS011;24864;49.940;19.770;2023-07-02T02:09:52;28.42;;;23.50;;
39128;SDS011;24864;49.940;19.770;2023-07-02T02:12:22;24.27;;;21.73;;
39128;SDS011;24864;49.940;19.770;2023-07-02T02:14:50;23.75;;;20.70;;
39128;SDS011;24864;49.940;19.770;2023-07-02T02:17:18;24.17;;;21.30;;
39128;SDS011;24864;49.940;19.770;2023-07-02T02:19:47;23.88;;;21.30;;
39128;SDS011;24864;49.940;19.770;2023-07-02T02:22:15;24.58;;;20.25;;
39128;SDS011;24864;49.940;19.770;2023-07-02T02:24:43;19.77;;;17.77;;
39128;SDS011;24864;49.940;19.770;2023-07-02T02:27:12;22.88;;;20.30;;
39128;SDS011;24864;49.940;19.770;2023-07-02T02:29:41;23.63;;;20.92;;
39128;SDS011;24864;49.940;19.770;2023-07-02T02:32:09;23.25;;;20.73;;
39128;SDS011;24864;49.940;19.770;2023-07-02T02:34:37;25.92;;;21.40;;
39128;SDS011;24864;49.940;19.770;2023-07-02T02:37:05;25.02;;;20.75;;
39128;SDS011;24864;49.940;19.770;2023-07-02T02:39:33;25.65;;;21.42;;
39128;SDS011;24864;49.940;19.770;2023-07-02T02:42:02;26.48;;;21.13;;
39128;SDS011;24864;49.940;19.770;2023-07-02T02:44:30;33.53;;;23.13;;
39128;SDS011;24864;49.940;19.770;2023-07-02T02:47:00;25.92;;;22.42;;
39128;SDS011;24864;49.940;19.770;2023-07-02T02:49:29;22.98;;;20.60;;
39128;SDS011;24864;49.940;19.770;2023-07-02T02:51:57;25.20;;;21.25;;
39128;SDS011;24864;49.940;19.770;2023-07-02T02:54:25;23.42;;;21.13;;
39128;SDS011;24864;49.940;19.770;2023-07-02T02:56:53;24.55;;;20.77;;
39128;SDS011;24864;49.940;19.770;2023-07-02T02:59:21;26.20;;;20.85;;
39128;SDS011;24864;49.940;19.770;2023-07-02T03:01:50;22.83;;;20.33;;
39128;SDS011;24864;49.940;19.770;2023-07-02T03:04:19;22.13;;;19.65;;
39128;SDS011;24864;49.940;19.770;2023-07-02T03:06:51;27.80;;;21.90;;
39128;SDS011;24864;49.940;19.770;2023-07-02T03:09:20;25.73;;;21.52;;
39128;SDS011;24864;49.940;19.770;2023-07-02T03:11:48;25.48;;;20.35;;
39128;SDS011;24864;49.940;19.770;2023-07-02T03:14:16;22.58;;;18.38;;
39128;SDS011;24864;49.940;19.770;2023-07-02T03:16:44;21.85;;;19.05;;
39128;SDS011;24864;49.940;19.770;2023-07-02T03:19:13;22.85;;;20.33;;
39128;SDS011;24864;49.940;19.770;2023-07-02T03:21:44;22.95;;;19.45;;
39128;SDS011;24864;49.940;19.770;2023-07-02T03:24:12;31.42;;;19.23;;
39128;SDS011;24864;49.940;19.770;2023-07-02T03:26:40;22.95;;;18.90;;
39128;SDS011;24864;49.940;19.770;2023-07-02T03:29:08;21.20;;;18.73;;
39128;SDS011;24864;49.940;19.770;2023-07-02T03:31:36;21.05;;;17.73;;
39128;SDS011;24864;49.940;19.770;2023-07-02T03:34:06;22.65;;;18.13;;
39128;SDS011;24864;49.940;19.770;2023-07-02T03:36:35;20.40;;;16.45;;
39128;SDS011;24864;49.940;19.770;2023-07-02T03:39:05;19.35;;;17.27;;
39128;SDS011;24864;49.940;19.770;2023-07-02T03:41:36;20.48;;;17.33;;
39128;SDS011;24864;49.940;19.770;2023-07-02T03:44:04;21.92;;;16.92;;
39128;SDS011;24864;49.940;19.770;2023-07-02T03:46:33;17.73;;;15.82;;
39128;SDS011;24864;49.940;19.770;2023-07-02T03:49:01;22.98;;;17.27;;
39128;SDS011;24864;49.940;19.770;2023-07-02T03:51:30;22.15;;;16.88;;
39128;SDS011;24864;49.940;19.770;2023-07-02T03:53:58;18.88;;;16.70;;
39128;SDS011;24864;49.940;19.770;2023-07-02T03:56:28;18.58;;;16.33;;
39128;SDS011;24864;49.940;19.770;2023-07-02T03:58:56;20.27;;;16.45;;
39128;SDS011;24864;49.940;19.770;2023-07-02T04:01:24;21.05;;;15.95;;
39128;SDS011;24864;49.940;19.770;2023-07-02T04:03:53;17.55;;;15.60;;
39128;SDS011;24864;49.940;19.770;2023-07-02T04:06:21;21.92;;;16.90;;
39128;SDS011;24864;49.940;19.770;2023-07-02T04:08:49;20.10;;;15.95;;
39128;SDS011;24864;49.940;19.770;2023-07-02T04:11:17;24.58;;;17.35;;
39128;SDS011;24864;49.940;19.770;2023-07-02T04:13:47;19.98;;;16.77;;
39128;SDS011;24864;49.940;19.770;2023-07-02T04:16:15;19.05;;;17.08;;
39128;SDS011;24864;49.940;19.770;2023-07-02T04:18:43;21.92;;;15.75;;
39128;SDS011;24864;49.940;19.770;2023-07-02T04:21:11;25.60;;;16.50;;
39128;SDS011;24864;49.940;19.770;2023-07-02T04:23:39;24.52;;;16.92;;
39128;SDS011;24864;49.940;19.770;2023-07-02T04:26:08;18.50;;;15.10;;
39128;SDS011;24864;49.940;19.770;2023-07-02T04:28:57;16.45;;;13.65;;
39128;SDS011;24864;49.940;19.770;2023-07-02T04:31:26;16.90;;;15.20;;
39128;SDS011;24864;49.940;19.770;2023-07-02T04:33:54;18.35;;;15.52;;
39128;SDS011;24864;49.940;19.770;2023-07-02T04:36:23;18.05;;;15.32;;
39128;SDS011;24864;49.940;19.770;2023-07-02T04:38:51;21.30;;;14.60;;
39128;SDS011;24864;49.940;19.770;2023-07-02T04:41:19;15.13;;;13.52;;
39128;SDS011;24864;49.940;19.770;2023-07-02T04:43:47;17.73;;;14.02;;
39128;SDS011;24864;49.940;19.770;2023-07-02T04:46:17;15.00;;;13.55;;
39128;SDS011;24864;49.940;19.770;2023-07-02T04:48:45;17.20;;;14.27;;
39128;SDS011;24864;49.940;19.770;2023-07-02T04:51:13;17.80;;;14.82;;
39128;SDS011;24864;49.940;19.770;2023-07-02T04:53:42;16.55;;;14.80;;
39128;SDS011;24864;49.940;19.770;2023-07-02T04:56:10;18.45;;;14.82;;
39128;SDS011;24864;49.940;19.770;2023-07-02T04:58:38;14.45;;;12.95;;
39128;SDS011;24864;49.940;19.770;2023-07-02T05:01:06;17.15;;;13.07;;
39128;SDS011;24864;49.940;19.770;2023-07-02T05:03:36;14.95;;;12.98;;
39128;SDS011;24864;49.940;19.770;2023-07-02T05:06:05;13.63;;;12.23;;
39128;SDS011;24864;49.940;19.770;2023-07-02T05:08:33;15.02;;;12.38;;
39128;SDS011;24864;49.940;19.770;2023-07-02T05:11:03;13.73;;;12.43;;
39128;SDS011;24864;49.940;19.770;2023-07-02T05:13:31;15.18;;;12.85;;
39128;SDS011;24864;49.940;19.770;2023-07-02T05:15:59;13.70;;;12.40;;
39128;SDS011;24864;49.940;19.770;2023-07-02T05:18:27;14.63;;;11.30;;
39128;SDS011;24864;49.940;19.770;2023-07-02T05:20:56;15.73;;;11.60;;
39128;SDS011;24864;49.940;19.770;2023-07-02T05:23:24;12.18;;;10.98;;
39128;SDS011;24864;49.940;19.770;2023-07-02T05:25:53;12.38;;;11.07;;
39128;SDS011;24864;49.940;19.770;2023-07-02T05:28:21;13.77;;;10.90;;
39128;SDS011;24864;49.940;19.770;2023-07-02T05:30:49;11.48;;;10.18;;
39128;SDS011;24864;49.940;19.770;2023-07-02T05:33:19;12.15;;;10.57;;
39128;SDS011;24864;49.940;19.770;2023-07-02T05:35:48;11.13;;;9.98;;
39128;SDS011;24864;49.940;19.770;2023-07-02T05:38:18;10.65;;;8.70;;
39128;SDS011;24864;49.940;19.770;2023-07-02T05:40:47;14.05;;;9.77;;
39128;SDS011;24864;49.940;19.770;2023-07-02T05:43:15;13.52;;;10.23;;
39128;SDS011;24864;49.940;19.770;2023-07-02T05:45:43;16.17;;;9.38;;
39128;SDS011;24864;49.940;19.770;2023-07-02T05:48:11;11.95;;;9.05;;
39128;SDS011;24864;49.940;19.770;2023-07-02T05:50:40;10.77;;;9.48;;
39128;SDS011;24864;49.940;19.770;2023-07-02T05:53:08;9.57;;;8.68;;
39128;SDS011;24864;49.940;19.770;2023-07-02T05:55:37;8.82;;;7.95;;
39128;SDS011;24864;49.940;19.770;2023-07-02T05:58:05;11.70;;;8.98;;
39128;SDS011;24864;49.940;19.770;2023-07-02T06:00:34;8.55;;;7.75;;
39128;SDS011;24864;49.940;19.770;2023-07-02T06:03:02;9.68;;;8.70;;
39128;SDS011;24864;49.940;19.770;2023-07-02T06:05:30;12.63;;;8.57;;
39128;SDS011;24864;49.940;19.770;2023-07-02T06:07:59;10.77;;;7.82;;
39128;SDS011;24864;49.940;19.770;2023-07-02T06:10:27;9.45;;;8.13;;
39128;SDS011;24864;49.940;19.770;2023-07-02T06:12:56;12.77;;;7.45;;
39128;SDS011;24864;49.940;19.770;2023-07-02T06:15:25;12.93;;;7.13;;
39128;SDS011;24864;49.940;19.770;2023-07-02T06:17:53;10.65;;;7.10;;
39128;SDS011;24864;49.940;19.770;2023-07-02T06:20:21;11.50;;;7.85;;
39128;SDS011;24864;49.940;19.770;2023-07-02T06:22:49;8.57;;;7.72;;
39128;SDS011;24864;49.940;19.770;2023-07-02T06:25:17;11.30;;;7.25;;
39128;SDS011;24864;49.940;19.770;2023-07-02T06:27:46;10.70;;;6.75;;
39128;SDS011;24864;49.940;19.770;2023-07-02T06:30:15;12.38;;;7.95;;
39128;SDS011;24864;49.940;19.770;2023-07-02T06:32:43;13.20;;;9.10;;
39128;SDS011;24864;49.940;19.770;2023-07-02T06:35:12;7.97;;;6.32;;
39128;SDS011;24864;49.940;19.770;2023-07-02T06:37:40;10.10;;;6.07;;
39128;SDS011;24864;49.940;19.770;2023-07-02T06:40:08;9.18;;;6.72;;
39128;SDS011;24864;49.940;19.770;2023-07-02T06:42:36;9.05;;;6.35;;
39128;SDS011;24864;49.940;19.770;2023-07-02T06:45:05;8.80;;;5.68;;
39128;SDS011;24864;49.940;19.770;2023-07-02T06:47:35;10.82;;;6.50;;
39128;SDS011;24864;49.940;19.770;2023-07-02T06:50:04;12.40;;;6.25;;
39128;SDS011;24864;49.940;19.770;2023-07-02T06:52:32;7.80;;;5.40;;
39128;SDS011;24864;49.940;19.770;2023-07-02T06:55:01;10.10;;;5.90;;
39128;SDS011;24864;49.940;19.770;2023-07-02T06:57:30;6.22;;;5.63;;
39128;SDS011;24864;49.940;19.770;2023-07-02T06:59:59;6.72;;;5.10;;
39128;SDS011;24864;49.940;19.770;2023-07-02T07:02:27;9.38;;;5.35;;
39128;SDS011;24864;49.940;19.770;2023-07-02T07:04:57;5.00;;;4.35;;
39128;SDS011;24864;49.940;19.770;2023-07-02T07:07:25;5.95;;;4.90;;
39128;SDS011;24864;49.940;19.770;2023-07-02T07:09:54;11.98;;;5.68;;
39128;SDS011;24864;49.940;19.770;2023-07-02T07:12:22;10.23;;;5.00;;
39128;SDS011;24864;49.940;19.770;2023-07-02T07:14:51;8.98;;;5.35;;
39128;SDS011;24864;49.940;19.770;2023-07-02T07:17:20;9.23;;;5.90;;
39128;SDS011;24864;49.940;19.770;2023-07-02T07:19:48;7.95;;;5.93;;
39128;SDS011;24864;49.940;19.770;2023-07-02T07:22:17;8.02;;;5.13;;
39128;SDS011;24864;49.940;19.770;2023-07-02T07:24:46;8.57;;;4.88;;
39128;SDS011;24864;49.940;19.770;2023-07-02T07:27:14;11.43;;;5.32;;
39128;SDS011;24864;49.940;19.770;2023-07-02T07:29:42;5.97;;;4.57;;
39128;SDS011;24864;49.940;19.770;2023-07-02T07:32:10;9.23;;;5.03;;
39128;SDS011;24864;49.940;19.770;2023-07-02T07:34:38;9.55;;;5.53;;
39128;SDS011;24864;49.940;19.770;2023-07-02T07:37:06;9.55;;;6.38;;
39128;SDS011;24864;49.940;19.770;2023-07-02T07:39:36;8.18;;;5.95;;
39128;SDS011;24864;49.940;19.770;2023-07-02T07:42:04;8.30;;;5.63;;
39128;SDS011;24864;49.940;19.770;2023-07-02T07:44:33;11.35;;;6.15;;
39128;SDS011;24864;49.940;19.770;2023-07-02T07:47:01;8.73;;;5.53;;
39128;SDS011;24864;49.940;19.770;2023-07-02T07:49:29;8.05;;;5.57;;
39128;SDS011;24864;49.940;19.770;2023-07-02T07:51:57;9.25;;;6.28;;
39128;SDS011;24864;49.940;19.770;2023-07-02T07:54:25;7.55;;;6.75;;
39128;SDS011;24864;49.940;19.770;2023-07-02T07:56:55;17.10;;;6.35;;
39128;SDS011;24864;49.940;19.770;2023-07-02T07:59:23;7.47;;;5.82;;
39128;SDS011;24864;49.940;19.770;2023-07-02T08:01:51;8.57;;;6.45;;
39128;SDS011;24864;49.940;19.770;2023-07-02T08:04:19;11.23;;;6.32;;
39128;SDS011;24864;49.940;19.770;2023-07-02T08:06:47;11.32;;;6.00;;
39128;SDS011;24864;49.940;19.770;2023-07-02T08:09:15;9.27;;;7.10;;
39128;SDS011;24864;49.940;19.770;2023-07-02T08:11:43;9.23;;;5.95;;
39128;SDS011;24864;49.940;19.770;2023-07-02T08:14:13;6.85;;;6.13;;
39128;SDS011;24864;49.940;19.770;2023-07-02T08:16:41;9.45;;;5.07;;
39128;SDS011;24864;49.940;19.770;2023-07-02T08:19:11;10.55;;;6.32;;
39128;SDS011;24864;49.940;19.770;2023-07-02T08:21:39;8.77;;;5.40;;
39128;SDS011;24864;49.940;19.770;2023-07-02T08:24:07;8.45;;;5.53;;
39128;SDS011;24864;49.940;19.770;2023-07-02T08:26:36;10.55;;;6.20;;
39128;SDS011;24864;49.940;19.770;2023-07-02T08:29:04;11.52;;;6.80;;
39128;SDS011;24864;49.940;19.770;2023-07-02T08:31:34;10.63;;;6.50;;
39128;SDS011;24864;49.940;19.770;2023-07-02T08:34:02;11.82;;;6.32;;
39128;SDS011;24864;49.940;19.770;2023-07-02T08:36:30;12.15;;;6.35;;
39128;SDS011;24864;49.940;19.770;2023-07-02T08:38:59;9.43;;;5.57;;
39128;SDS011;24864;49.940;19.770;2023-07-02T08:41:27;11.25;;;5.57;;
39128;SDS011;24864;49.940;19.770;2023-07-02T08:43:56;9.88;;;6.28;;
39128;SDS011;24864;49.940;19.770;2023-07-02T08:46:25;6.28;;;5.68;;
39128;SDS011;24864;49.940;19.770;2023-07-02T08:48:55;8.18;;;5.15;;
39128;SDS011;24864;49.940;19.770;2023-07-02T08:51:23;10.93;;;5.45;;
39128;SDS011;24864;49.940;19.770;2023-07-02T08:53:52;13.23;;;4.53;;
39128;SDS011;24864;49.940;19.770;2023-07-02T08:56:20;7.35;;;3.30;;
39128;SDS011;24864;49.940;19.770;2023-07-02T08:58:48;5.97;;;3.60;;
39128;SDS011;24864;49.940;19.770;2023-07-02T09:01:16;11.75;;;3.65;;
39128;SDS011;24864;49.940;19.770;2023-07-02T09:03:44;6.05;;;3.63;;
39128;SDS011;24864;49.940;19.770;2023-07-02T09:06:16;8.27;;;3.60;;
39128;SDS011;24864;49.940;19.770;2023-07-02T09:08:45;7.78;;;3.97;;
39128;SDS011;24864;49.940;19.770;2023-07-02T09:11:13;7.05;;;4.32;;
39128;SDS011;24864;49.940;19.770;2023-07-02T09:13:44;6.25;;;4.05;;
39128;SDS011;24864;49.940;19.770;2023-07-02T09:19:00;7.55;;;4.28;;
39128;SDS011;24864;49.940;19.770;2023-07-02T09:21:40;8.07;;;4.15;;
39128;SDS011;24864;49.940;19.770;2023-07-02T09:24:13;7.22;;;4.13;;
39128;SDS011;24864;49.940;19.770;2023-07-02T09:26:43;9.55;;;4.53;;
39128;SDS011;24864;49.940;19.770;2023-07-02T09:29:11;4.68;;;3.90;;
39128;SDS011;24864;49.940;19.770;2023-07-02T09:31:43;7.95;;;4.55;;
39128;SDS011;24864;49.940;19.770;2023-07-02T09:34:32;8.63;;;4.22;;
39128;SDS011;24864;49.940;19.770;2023-07-02T09:37:03;4.85;;;3.90;;
39128;SDS011;24864;49.940;19.770;2023-07-02T09:39:32;7.57;;;3.72;;
39128;SDS011;24864;49.940;19.770;2023-07-02T09:42:02;4.10;;;3.38;;
39128;SDS011;24864;49.940;19.770;2023-07-02T09:47:02;7.70;;;3.58;;
39128;SDS011;24864;49.940;19.770;2023-07-02T09:49:31;6.20;;;3.33;;
39128;SDS011;24864;49.940;19.770;2023-07-02T09:52:01;3.72;;;2.92;;
39128;SDS011;24864;49.940;19.770;2023-07-02T09:57:00;4.05;;;2.80;;
39128;SDS011;24864;49.940;19.770;2023-07-02T09:59:30;2.88;;;2.50;;
39128;SDS011;24864;49.940;19.770;2023-07-02T10:01:58;4.18;;;2.67;;
39128;SDS011;24864;49.940;19.770;2023-07-02T10:04:27;12.88;;;2.50;;
39128;SDS011;24864;49.940;19.770;2023-07-02T10:06:56;5.18;;;2.30;;
39128;SDS011;24864;49.940;19.770;2023-07-02T10:09:35;3.08;;;2.30;;
39128;SDS011;24864;49.940;19.770;2023-07-02T10:12:16;4.57;;;1.95;;
39128;SDS011;24864;49.940;19.770;2023-07-02T10:14:46;5.97;;;2.03;;
39128;SDS011;24864;49.940;19.770;2023-07-02T10:17:24;2.47;;;1.92;;
39128;SDS011;24864;49.940;19.770;2023-07-02T10:19:56;2.85;;;1.60;;
39128;SDS011;24864;49.940;19.770;2023-07-02T10:22:26;3.47;;;2.25;;
39128;SDS011;24864;49.940;19.770;2023-07-02T10:24:56;2.80;;;1.88;;
39128;SDS011;24864;49.940;19.770;2023-07-02T10:27:33;2.65;;;1.40;;
39128;SDS011;24864;49.940;19.770;2023-07-02T10:30:03;3.80;;;2.45;;
39128;SDS011;24864;49.940;19.770;2023-07-02T10:32:32;5.55;;;3.22;;
39128;SDS011;24864;49.940;19.770;2023-07-02T10:35:02;3.50;;;3.20;;
39128;SDS011;24864;49.940;19.770;2023-07-02T10:37:40;5.47;;;4.10;;
39128;SDS011;24864;49.940;19.770;2023-07-02T10:40:11;9.35;;;4.40;;
39128;SDS011;24864;49.940;19.770;2023-07-02T10:42:46;7.55;;;4.55;;
39128;SDS011;24864;49.940;19.770;2023-07-02T10:45:14;5.05;;;4.55;;
39128;SDS011;24864;49.940;19.770;2023-07-02T10:47:43;6.90;;;3.22;;
39128;SDS011;24864;49.940;19.770;2023-07-02T10:50:15;4.35;;;2.88;;
39128;SDS011;24864;49.940;19.770;2023-07-02T10:52:44;4.95;;;3.13;;
39128;SDS011;24864;49.940;19.770;2023-07-02T10:55:17;5.65;;;3.60;;
39128;SDS011;24864;49.940;19.770;2023-07-02T10:57:46;4.85;;;3.90;;
39128;SDS011;24864;49.940;19.770;2023-07-02T11:00:14;5.03;;;3.60;;
39128;SDS011;24864;49.940;19.770;2023-07-02T11:02:43;4.10;;;2.47;;
39128;SDS011;24864;49.940;19.770;2023-07-02T11:05:11;5.05;;;2.70;;
39128;SDS011;24864;49.940;19.770;2023-07-02T11:07:40;6.30;;;2.85;;
39128;SDS011;24864;49.940;19.770;2023-07-02T11:10:09;2.90;;;2.67;;
39128;SDS011;24864;49.940;19.770;2023-07-02T11:12:39;4.45;;;3.10;;
39128;SDS011;24864;49.940;19.770;2023-07-02T11:15:08;4.00;;;3.00;;
39128;SDS011;24864;49.940;19.770;2023-07-02T11:17:36;5.00;;;2.85;;
39128;SDS011;24864;49.940;19.770;2023-07-02T11:20:07;3.23;;;2.97;;
39128;SDS011;24864;49.940;19.770;2023-07-02T11:22:36;5.50;;;2.97;;
39128;SDS011;24864;49.940;19.770;2023-07-02T11:25:08;5.97;;;3.13;;
39128;SDS011;24864;49.940;19.770;2023-07-02T11:27:40;5.63;;;2.97;;
39128;SDS011;24864;49.940;19.770;2023-07-02T11:30:10;3.28;;;2.80;;
39128;SDS011;24864;49.940;19.770;2023-07-02T11:32:48;4.10;;;2.97;;
39128;SDS011;24864;49.940;19.770;2023-07-02T11:35:18;3.75;;;3.17;;
39128;SDS011;24864;49.940;19.770;2023-07-02T11:37:46;4.03;;;2.53;;
39128;SDS011;24864;49.940;19.770;2023-07-02T11:40:19;2.38;;;2.17;;
39128;SDS011;24864;49.940;19.770;2023-07-02T11:42:49;4.25;;;2.90;;
39128;SDS011;24864;49.940;19.770;2023-07-02T11:45:17;4.72;;;2.80;;
39128;SDS011;24864;49.940;19.770;2023-07-02T11:47:45;3.03;;;2.70;;
39128;SDS011;24864;49.940;19.770;2023-07-02T11:50:14;2.70;;;2.22;;
39128;SDS011;24864;49.940;19.770;2023-07-02T11:52:52;5.32;;;2.50;;
39128;SDS011;24864;49.940;19.770;2023-07-02T11:55:21;2.75;;;2.55;;
39128;SDS011;24864;49.940;19.770;2023-07-02T11:57:50;2.88;;;2.50;;
39128;SDS011;24864;49.940;19.770;2023-07-02T12:00:19;2.58;;;2.17;;
39128;SDS011;24864;49.940;19.770;2023-07-02T12:02:47;4.22;;;2.60;;
39128;SDS011;24864;49.940;19.770;2023-07-02T12:05:16;4.40;;;2.67;;
39128;SDS011;24864;49.940;19.770;2023-07-02T12:07:44;6.43;;;2.72;;
39128;SDS011;24864;49.940;19.770;2023-07-02T12:10:12;3.97;;;2.60;;
39128;SDS011;24864;49.940;19.770;2023-07-02T12:12:40;6.90;;;2.58;;
39128;SDS011;24864;49.940;19.770;2023-07-02T12:15:10;2.85;;;2.15;;
39128;SDS011;24864;49.940;19.770;2023-07-02T12:17:38;3.20;;;2.47;;
39128;SDS011;24864;49.940;19.770;2023-07-02T12:20:07;4.03;;;2.00;;
39128;SDS011;24864;49.940;19.770;2023-07-02T12:22:35;2.92;;;2.20;;
39128;SDS011;24864;49.940;19.770;2023-07-02T12:25:04;2.55;;;2.30;;
39128;SDS011;24864;49.940;19.770;2023-07-02T12:27:33;2.88;;;2.03;;
39128;SDS011;24864;49.940;19.770;2023-07-02T12:30:01;5.75;;;2.50;;
39128;SDS011;24864;49.940;19.770;2023-07-02T12:32:31;2.80;;;2.45;;
39128;SDS011;24864;49.940;19.770;2023-07-02T12:34:59;3.55;;;2.10;;
39128;SDS011;24864;49.940;19.770;2023-07-02T12:37:28;4.53;;;1.90;;
39128;SDS011;24864;49.940;19.770;2023-07-02T12:39:56;2.58;;;2.38;;
39128;SDS011;24864;49.940;19.770;2023-07-02T12:42:24;3.58;;;2.47;;
39128;SDS011;24864;49.940;19.770;2023-07-02T12:44:52;4.57;;;2.47;;
39128;SDS011;24864;49.940;19.770;2023-07-02T12:47:20;3.40;;;2.20;;
39128;SDS011;24864;49.940;19.770;2023-07-02T12:49:50;2.00;;;1.80;;
39128;SDS011;24864;49.940;19.770;2023-07-02T12:52:18;3.70;;;2.25;;
39128;SDS011;24864;49.940;19.770;2023-07-02T12:54:46;2.30;;;2.10;;
39128;SDS011;24864;49.940;19.770;2023-07-02T12:57:14;2.47;;;2.20;;
39128;SDS011;24864;49.940;19.770;2023-07-02T12:59:45;2.95;;;2.20;;
39128;SDS011;24864;49.940;19.770;2023-07-02T13:02:14;3.60;;;2.22;;
39128;SDS011;24864;49.940;19.770;2023-07-02T13:04:42;2.20;;;2.00;;
39128;SDS011;24864;49.940;19.770;2023-07-02T13:07:12;3.22;;;2.17;;
39128;SDS011;24864;49.940;19.770;2023-07-02T13:09:40;2.50;;;2.30;;
39128;SDS011;24864;49.940;19.770;2023-07-02T13:12:09;2.97;;;2.10;;
39128;SDS011;24864;49.940;19.770;2023-07-02T13:14:38;4.50;;;1.92;;
39128;SDS011;24864;49.940;19.770;2023-07-02T13:17:06;2.10;;;1.90;;
39128;SDS011;24864;49.940;19.770;2023-07-02T13:19:34;1.73;;;1.60;;
39128;SDS011;24864;49.940;19.770;2023-07-02T13:22:02;2.95;;;1.80;;
39128;SDS011;24864;49.940;19.770;2023-07-02T13:24:33;1.83;;;1.60;;
39128;SDS011;24864;49.940;19.770;2023-07-02T13:27:02;2.15;;;1.70;;
39128;SDS011;24864;49.940;19.770;2023-07-02T13:29:32;3.13;;;1.63;;
39128;SDS011;24864;49.940;19.770;2023-07-02T13:32:00;2.13;;;1.70;;
39128;SDS011;24864;49.940;19.770;2023-07-02T13:34:29;2.10;;;1.60;;
39128;SDS011;24864;49.940;19.770;2023-07-02T13:36:57;1.83;;;1.67;;
39128;SDS011;24864;49.940;19.770;2023-07-02T13:39:25;1.90;;;1.48;;
39128;SDS011;24864;49.940;19.770;2023-07-02T13:41:54;4.75;;;1.90;;
39128;SDS011;24864;49.940;19.770;2023-07-02T13:44:22;2.38;;;1.63;;
39128;SDS011;24864;49.940;19.770;2023-07-02T13:46:51;2.30;;;1.25;;
39128;SDS011;24864;49.940;19.770;2023-07-02T13:49:19;3.15;;;1.45;;
39128;SDS011;24864;49.940;19.770;2023-07-02T13:51:48;6.22;;;1.67;;
39128;SDS011;24864;49.940;19.770;2023-07-02T13:54:17;8.68;;;1.45;;
39128;SDS011;24864;49.940;19.770;2023-07-02T13:56:46;9.90;;;1.00;;
39128;SDS011;24864;49.940;19.770;2023-07-02T13:59:18;5.50;;;1.23;;
39128;SDS011;24864;49.940;19.770;2023-07-02T14:01:46;7.82;;;1.42;;
39128;SDS011;24864;49.940;19.770;2023-07-02T14:04:16;7.78;;;1.30;;
39128;SDS011;24864;49.940;19.770;2023-07-02T14:06:45;3.42;;;1.38;;
39128;SDS011;24864;49.940;19.770;2023-07-02T14:09:13;8.55;;;1.00;;
39128;SDS011;24864;49.940;19.770;2023-07-02T14:11:41;2.72;;;1.13;;
39128;SDS011;24864;49.940;19.770;2023-07-02T14:14:10;10.77;;;1.10;;
39128;SDS011;24864;49.940;19.770;2023-07-02T14:16:40;4.75;;;0.80;;
39128;SDS011;24864;49.940;19.770;2023-07-02T14:19:08;6.50;;;1.10;;
39128;SDS011;24864;49.940;19.770;2023-07-02T14:21:36;2.67;;;1.10;;
39128;SDS011;24864;49.940;19.770;2023-07-02T14:24:05;1.95;;;1.10;;
39128;SDS011;24864;49.940;19.770;2023-07-02T14:26:33;2.95;;;0.90;;
39128;SDS011;24864;49.940;19.770;2023-07-02T14:29:01;2.03;;;0.90;;
39128;SDS011;24864;49.940;19.770;2023-07-02T14:31:29;2.05;;;0.80;;
39128;SDS011;24864;49.940;19.770;2023-07-02T14:33:59;3.35;;;0.95;;
39128;SDS011;24864;49.940;19.770;2023-07-02T14:36:27;1.33;;;1.00;;
39128;SDS011;24864;49.940;19.770;2023-07-02T14:38:55;1.33;;;0.90;;
39128;SDS011;24864;49.940;19.770;2023-07-02T14:41:23;5.72;;;1.20;;
39128;SDS011;24864;49.940;19.770;2023-07-02T14:43:53;1.83;;;1.20;;